South Norfolk, Virginia
Current Conditions -  °F | °C
As of 6:51 PM on Friday 21 Nov 2014 (Local Time) from KORF Reporting Station
Clear Clear  
Wind Chill: 32°   Ceiling: Unl
Heat Index: 38°   Visibility: 10mi
Dew Point: 14°   Wind: 8mph
Humidity: 38%   Direction: 350°N
Pressure: 30.53"   Gusts: NA
Location:  36.7998°N, 76.2734°W
Report Text: KORF 212351Z AUTO 35007KT 10SM CLR 03/M10 A3053 RMK AO2 SLP338 T00331100 10061 20033 51020 TSNO
Loading
Personal Weather Stations






























Interactive Weather Map New forecast layout! Learn more

10-Day Weather Forecast

Advertisements
Track Severe Weather on mobile